Time;durP1;ratioP1;P1;durP2;ratioP2;P2;SDS_P1;SDS_P2;PMS_P1;PMS_P2;Temp;Humidity;BMP_temperature;BMP_pressure;BME280_temperature;BME280_humidity;BME280_pressure;Samples;Min_cycle;Max_cycle;Signal;HPM_P1;HPM_P2
2024/03/30 00:00:05;;;;;;;57.08;10.50;;;;;;;14.55;70.61;94265.34;1031025;28;20135;-70
2024/03/30 00:00:36;;;;;;;80.32;10.85;;;;;;;14.51;69.65;94263.66;1026780;28;20034;-69
2024/03/30 00:01:07;;;;;;;66.90;11.50;;;;;;;14.56;71.13;94274.03;1026845;28;20472;-69
2024/03/30 00:01:38;;;;;;;73.43;11.52;;;;;;;14.59;69.47;94268.09;1028538;28;20052;-69
2024/03/30 00:02:09;;;;;;;65.28;11.93;;;;;;;14.68;68.08;94271.41;1031039;28;20625;-69
2024/03/30 00:02:39;;;;;;;84.00;11.52;;;;;;;14.68;67.08;94270.66;1022948;28;20070;-69
2024/03/30 00:03:10;;;;;;;74.40;12.27;;;;;;;14.75;66.25;94270.88;1024102;28;20030;-69
2024/03/30 00:03:40;;;;;;;69.55;11.98;;;;;;;14.75;66.36;94266.38;1023626;28;20372;-69
2024/03/30 00:04:11;;;;;;;70.07;11.68;;;;;;;14.72;67.22;94266.25;1023306;28;20841;-69
2024/03/30 00:04:41;;;;;;;70.72;11.25;;;;;;;14.66;67.72;94270.97;1027180;28;20464;-70
2024/03/30 00:05:11;;;;;;;67.78;11.70;;;;;;;14.60;69.31;94267.75;1031103;28;20048;-69
2024/03/30 00:05:42;;;;;;;72.30;9.95;;;;;;;14.57;69.35;94280.84;1029179;28;20039;-69
2024/03/30 00:06:12;;;;;;;67.32;9.55;;;;;;;14.53;70.25;94274.66;1027027;28;20122;-69
2024/03/30 00:06:43;;;;;;;64.55;9.77;;;;;;;14.44;71.50;94266.00;1027149;28;20109;-70
2024/03/30 00:07:13;;;;;;;76.22;10.60;;;;;;;14.46;71.48;94269.09;1034046;28;20026;-69
2024/03/30 00:07:44;;;;;;;62.40;10.52;;;;;;;14.53;69.17;94274.66;1034156;28;20037;-69
2024/03/30 00:08:15;;;;;;;77.70;11.55;;;;;;;14.53;69.61;94269.38;1034903;28;20192;-67
2024/03/30 00:08:45;;;;;;;86.20;13.18;;;;;;;14.55;69.69;94272.47;1034493;28;20065;-69
2024/03/30 00:09:16;;;;;;;62.65;11.50;;;;;;;14.50;70.44;94268.16;1034973;28;20033;-70
2024/03/30 00:09:48;;;;;;;72.53;10.63;;;;;;;14.56;69.60;94274.78;1027094;28;20046;-69
2024/03/30 00:10:18;;;;;;;76.28;11.00;;;;;;;14.57;70.19;94275.56;1031155;28;20579;-69
2024/03/30 00:10:56;;;;;;;63.55;10.20;;;;;;;14.57;69.55;94275.56;1031062;28;20038;-69
2024/03/30 00:11:26;;;;;;;77.13;11.95;;;;;;;14.63;67.03;94281.41;1031152;28;20022;-69
2024/03/30 00:11:57;;;;;;;65.57;9.73;;;;;;;14.60;67.88;94275.69;1032069;28;20026;-69
2024/03/30 00:12:27;;;;;;;82.65;11.27;;;;;;;14.65;67.89;94274.69;1028980;28;20026;-68
2024/03/30 00:13:00;;;;;;;66.28;10.07;;;;;;;14.66;66.98;94273.63;1028185;28;20027;-70
2024/03/30 00:13:30;;;;;;;79.50;11.27;;;;;;;14.64;66.91;94275.81;1026994;28;20081;-69
2024/03/30 00:14:01;;;;;;;85.93;12.23;;;;;;;14.63;66.49;94269.00;1023677;28;20567;-69
2024/03/30 00:14:31;;;;;;;76.88;10.93;;;;;;;14.61;66.55;94268.53;1031074;28;20018;-69
2024/03/30 00:15:02;;;;;;;64.25;11.68;;;;;;;14.55;68.31;94261.91;1027031;28;20519;-69
2024/03/30 00:15:32;;;;;;;69.25;11.57;;;;;;;14.57;68.73;94270.28;1027037;28;20586;-70
2024/03/30 00:16:09;;;;;;;77.95;10.45;;;;;;;14.61;66.81;94268.53;1026807;28;20579;-69
2024/03/30 00:16:39;;;;;;;76.65;10.68;;;;;;;14.56;65.02;94252.91;1026874;28;20086;-69
2024/03/30 00:17:10;;;;;;;73.78;10.93;;;;;;;14.64;65.09;94275.81;1027910;28;20039;-69
2024/03/30 00:17:40;;;;;;;76.43;10.13;;;;;;;14.62;65.13;94262.19;1024755;28;20031;-69
2024/03/30 00:18:11;;;;;;;92.93;11.27;;;;;;;14.59;65.50;94266.22;1023284;28;20039;-69
2024/03/30 00:18:43;;;;;;;66.80;10.15;;;;;;;14.56;66.35;94274.03;1026571;28;20607;-68
2024/03/30 00:19:15;;;;;;;62.63;11.13;;;;;;;14.59;64.97;94268.09;1031562;28;20041;-69
2024/03/30 00:19:45;;;;;;;63.60;11.52;;;;;;;14.57;64.73;94272.91;1031081;28;20042;-70
2024/03/30 00:20:16;;;;;;;76.82;10.48;;;;;;;14.66;62.52;94260.44;1026900;28;20031;-69
2024/03/30 00:20:46;;;;;;;66.72;10.50;;;;;;;14.64;63.66;94265.25;1030925;28;20084;-69
2024/03/30 00:21:17;;;;;;;65.30;10.60;;;;;;;14.60;64.04;94264.34;1027161;28;20027;-69
2024/03/30 00:21:47;;;;;;;62.55;10.13;;;;;;;14.60;64.19;94270.41;1024572;28;20116;-69
2024/03/30 00:22:18;;;;;;;64.18;10.30;;;;;;;14.58;63.58;94267.31;1022929;29;20070;-69
2024/03/30 00:22:51;;;;;;;72.78;11.15;;;;;;;14.60;62.24;94267.75;1026974;28;20038;-68
2024/03/30 00:23:22;;;;;;;79.07;10.68;;;;;;;14.61;62.14;94271.16;1025085;28;20031;-70
2024/03/30 00:23:52;;;;;;;64.95;10.05;;;;;;;14.63;62.75;94263.72;1030964;28;20484;-70
2024/03/30 00:24:23;;;;;;;60.70;11.25;;;;;;;14.63;61.97;94265.59;1021076;29;20031;-69
2024/03/30 00:24:53;;;;;;;62.33;9.10;;;;;;;14.71;59.88;94265.50;1023136;28;20031;-69
2024/03/30 00:25:23;;;;;;;66.18;10.63;;;;;;;14.70;60.66;94273.75;1022851;29;20551;-69
2024/03/30 00:25:54;;;;;;;74.03;9.20;;;;;;;14.71;60.14;94268.13;1019863;28;20126;-70
2024/03/30 00:26:24;;;;;;;79.53;10.63;;;;;;;14.79;59.25;94267.28;1030893;28;20034;-69
2024/03/30 00:26:55;;;;;;;77.03;11.50;;;;;;;14.85;57.77;94271.28;1028592;28;20388;-69
2024/03/30 00:27:25;;;;;;;73.13;8.68;;;;;;;14.83;59.16;94272.69;1035176;28;20026;-68
2024/03/30 00:27:56;;;;;;;69.53;10.63;;;;;;;14.81;58.71;94274.88;1034791;28;20030;-69
2024/03/30 00:28:27;;;;;;;61.47;12.43;;;;;;;14.90;56.75;94261.59;1034866;28;20491;-69
2024/03/30 00:28:57;;;;;;;79.13;9.93;;;;;;;14.94;58.39;94273.06;1026494;28;20046;-69
2024/03/30 00:29:28;;;;;;;55.65;9.73;;;;;;;15.01;56.13;94275.94;1025094;28;20034;-69
2024/03/30 00:29:58;;;;;;;59.45;10.75;;;;;;;14.97;56.42;94272.41;1030994;28;20030;-69
2024/03/30 00:30:36;;;;;;;66.53;10.05;;;;;;;14.94;56.51;94278.34;1030926;28;20196;-69
2024/03/30 00:31:07;;;;;;;79.38;11.05;;;;;;;14.91;56.68;94271.06;1030197;28;20026;-69
2024/03/30 00:31:37;;;;;;;69.57;10.02;;;;;;;14.85;57.24;94271.28;1031001;28;20038;-69
2024/03/30 00:32:07;;;;;;;58.90;9.20;;;;;;;14.81;57.73;94267.72;1026274;28;20049;-68
2024/03/30 00:32:38;;;;;;;77.05;10.10;;;;;;;14.83;57.41;94268.19;1023636;28;20035;-69
2024/03/30 00:33:08;;;;;;;61.22;10.35;;;;;;;14.77;58.87;94263.44;1022915;29;20074;-69
2024/03/30 00:33:39;;;;;;;72.95;10.02;;;;;;;14.74;59.12;94270.13;1024961;28;20069;-69
2024/03/30 00:34:09;;;;;;;67.78;11.13;;;;;;;14.71;58.48;94276.06;1029976;28;20045;-68
2024/03/30 00:34:40;;;;;;;58.67;10.57;;;;;;;14.71;58.25;94273.41;1033830;28;20066;-68
2024/03/30 00:35:11;;;;;;;69.47;8.60;;;;;;;14.70;58.26;94269.22;1030910;28;20027;-69
2024/03/30 00:35:41;;;;;;;74.55;11.32;;;;;;;14.69;58.62;94261.63;1027180;28;20038;-69
2024/03/30 00:36:12;;;;;;;53.95;9.10;;;;;;;14.69;60.29;94278.25;1024570;28;20632;-69
2024/03/30 00:36:42;;;;;;;68.90;10.00;;;;;;;14.73;59.04;94273.09;1027060;28;20657;-70
2024/03/30 00:37:13;;;;;;;58.22;9.45;;;;;;;14.75;58.79;94270.88;1019724;29;20473;-69
2024/03/30 00:37:43;;;;;;;55.63;8.73;;;;;;;14.69;60.31;94272.97;1018999;29;20489;-70
2024/03/30 00:38:14;;;;;;;65.57;10.18;;;;;;;14.59;62.53;94274.16;1022928;29;20801;-68
2024/03/30 00:38:45;;;;;;;69.68;10.43;;;;;;;14.57;62.60;94272.91;1018610;28;20038;-69
2024/03/30 00:39:16;;;;;;;79.95;9.45;;;;;;;14.54;61.07;94271.69;1027149;28;20085;-68
2024/03/30 00:39:46;;;;;;;60.63;9.68;;;;;;;14.56;61.20;94279.31;1032798;28;20033;-70
2024/03/30 00:40:16;;;;;;;62.55;8.57;;;;;;;14.59;60.76;94273.38;1034505;28;20037;-70
2024/03/30 00:40:47;;;;;;;52.08;9.07;;;;;;;14.55;61.70;94269.81;1034933;28;20138;-70
2024/03/30 00:41:18;;;;;;;65.55;11.00;;;;;;;14.48;63.23;94272.19;1039346;28;20025;-70
2024/03/30 00:41:48;;;;;;;63.60;9.07;;;;;;;14.44;65.03;94271.28;1043482;28;20035;-68
2024/03/30 00:42:19;;;;;;;78.80;10.23;;;;;;;14.49;63.73;94279.03;1039057;28;20029;-70
2024/03/30 00:42:49;;;;;;;65.40;10.60;;;;;;;14.41;66.60;94277.97;1039079;28;20041;-69
2024/03/30 00:43:20;;;;;;;62.08;9.75;;;;;;;14.33;67.96;94266.41;1035033;28;20026;-69
2024/03/30 00:43:51;;;;;;;65.03;11.45;;;;;;;14.26;68.61;94274.06;1031209;28;20030;-69
2024/03/30 00:44:21;;;;;;;50.72;8.68;;;;;;;14.20;69.66;94277.22;1030949;28;20393;-69
2024/03/30 00:44:52;;;;;;;71.47;10.15;;;;;;;14.20;68.36;94274.56;1023026;28;20472;-70
2024/03/30 00:45:22;;;;;;;75.45;11.32;;;;;;;14.16;68.77;94274.44;1026969;28;20141;-69
2024/03/30 00:45:53;;;;;;;66.18;9.27;;;;;;;14.13;70.16;94277.72;1027095;28;20038;-70
2024/03/30 00:46:23;;;;;;;59.47;10.23;;;;;;;14.06;73.66;94277.47;1028582;28;20043;-70
2024/03/30 00:46:54;;;;;;;62.80;10.63;;;;;;;13.98;78.17;94276.41;1026873;28;20023;-70
2024/03/30 00:47:24;;;;;;;68.85;10.40;;;;;;;13.90;81.40;94279.88;1022714;29;20524;-70
2024/03/30 00:47:55;;;;;;;69.63;10.05;;;;;;;13.71;83.88;94258.41;1014915;29;20091;-69
2024/03/30 00:48:25;;;;;;;52.42;9.57;;;;;;;13.72;88.20;94281.84;1015209;29;20449;-70
2024/03/30 00:48:56;;;;;;;68.43;10.10;;;;;;;13.64;91.30;94282.63;1018441;29;20082;-69
2024/03/30 00:49:26;;;;;;;62.80;11.38;;;;;;;13.61;92.73;94280.63;1022229;28;20489;-70
2024/03/30 00:49:57;;;;;;;75.65;12.32;;;;;;;13.52;93.62;94277.28;1032720;28;20100;-70
2024/03/30 00:50:27;;;;;;;61.40;10.63;;;;;;;13.50;94.05;94277.56;1030831;28;20034;-70
2024/03/30 00:50:57;;;;;;;57.40;10.45;;;;;;;13.45;96.48;94280.41;1030957;28;20031;-69
2024/03/30 00:51:28;;;;;;;69.57;9.95;;;;;;;13.33;98.12;94281.06;1025344;28;20030;-68
2024/03/30 00:51:59;;;;;;;71.40;11.57;;;;;;;13.37;98.56;94281.97;1027204;28;20054;-68
2024/03/30 00:52:29;;;;;;;71.38;11.55;;;;;;;13.37;98.61;94284.59;1026897;28;20074;-68
2024/03/30 00:53:00;;;;;;;69.32;10.52;;;;;;;13.26;99.27;94280.78;1031030;28;20034;-70
2024/03/30 00:53:30;;;;;;;83.95;11.27;;;;;;;13.31;98.65;94285.88;1034905;28;20060;-68
2024/03/30 00:54:00;;;;;;;69.88;9.68;;;;;;;13.26;99.82;94282.63;1030813;28;20034;-69
2024/03/30 00:54:31;;;;;;;84.32;11.32;;;;;;;13.25;99.30;94284.50;1026935;28;20018;-70
2024/03/30 00:55:02;;;;;;;75.85;11.20;;;;;;;13.26;99.00;94288.66;1027141;28;20057;-70
2024/03/30 00:55:32;;;;;;;80.10;11.45;;;;;;;13.23;100.00;94291.13;1030732;28;20030;-69
2024/03/30 00:56:03;;;;;;;67.93;11.77;;;;;;;13.23;99.37;94294.53;1031104;28;20484;-70
2024/03/30 00:56:33;;;;;;;62.30;10.52;;;;;;;13.19;100.00;94291.00;1030752;28;20081;-69
2024/03/30 00:57:04;;;;;;;64.68;10.80;;;;;;;13.09;100.00;94288.69;1024116;28;20034;-70
2024/03/30 00:57:41;;;;;;;58.70;8.77;;;;;;;13.18;100.00;94286.81;1022967;29;20031;-68
2024/03/30 00:58:11;;;;;;;58.47;9.40;;;;;;;13.17;100.00;94293.16;1022714;29;20058;-70
2024/03/30 00:58:42;;;;;;;76.90;12.30;;;;;;;13.13;100.00;94286.97;1025023;28;20034;-67
2024/03/30 00:59:12;;;;;;;78.43;11.82;;;;;;;13.08;100.00;94297.69;1036138;28;20018;-70
2024/03/30 00:59:43;;;;;;;75.97;12.98;;;;;;;13.05;100.00;94295.69;1038829;28;20059;-69
2024/03/30 01:00:14;;;;;;;73.50;12.10;;;;;;;13.03;100.00;94295.22;1026973;28;20528;-70
2024/03/30 01:00:44;;;;;;;65.68;11.30;;;;;;;13.01;100.00;94298.16;1022716;28;20042;-69
2024/03/30 01:01:16;;;;;;;70.65;11.85;;;;;;;12.97;100.00;94297.22;1030911;28;20022;-70
2024/03/30 01:01:47;;;;;;;61.70;9.93;;;;;;;12.95;100.00;94299.41;1027304;28;20368;-69
2024/03/30 01:02:18;;;;;;;71.30;10.90;;;;;;;12.87;100.00;94287.03;1033582;28;20543;-70
2024/03/30 01:02:48;;;;;;;81.43;10.50;;;;;;;12.87;100.00;94297.56;1030554;28;20018;-71
2024/03/30 01:03:19;;;;;;;69.35;10.23;;;;;;;12.83;100.00;94297.41;1023325;28;20015;-70
2024/03/30 01:03:49;;;;;;;71.70;9.80;;;;;;;12.78;100.00;94294.94;1026706;28;20030;-70
2024/03/30 01:04:20;;;;;;;61.40;10.20;;;;;;;12.75;100.00;94295.56;1026980;28;20828;-70
2024/03/30 01:04:50;;;;;;;75.45;10.95;;;;;;;12.69;100.00;94291.53;1022832;29;20031;-69
2024/03/30 01:05:21;;;;;;;73.65;10.90;;;;;;;12.69;100.00;94294.94;1022957;28;20016;-70
2024/03/30 01:05:51;;;;;;;65.25;10.45;;;;;;;12.64;100.00;94294.31;1026448;28;20031;-70
2024/03/30 01:06:24;;;;;;;75.57;9.38;;;;;;;12.58;100.00;94295.56;1026836;28;20022;-67
2024/03/30 01:06:56;;;;;;;69.97;11.07;;;;;;;12.38;100.00;94266.16;1030813;28;20503;-69
2024/03/30 01:07:26;;;;;;;69.82;10.82;;;;;;;12.47;100.00;94289.84;1026637;28;20033;-69
2024/03/30 01:07:57;;;;;;;66.85;10.85;;;;;;;12.41;100.00;94296.34;1024991;28;20377;-70
2024/03/30 01:08:27;;;;;;;67.60;10.40;;;;;;;12.39;100.00;94293.25;1022500;29;20022;-70
2024/03/30 01:08:58;;;;;;;74.15;9.40;;;;;;;12.37;100.00;94305.91;1019896;28;20067;-70
2024/03/30 01:09:29;;;;;;;74.75;12.43;;;;;;;12.31;100.00;94300.06;1026895;28;20031;-70
2024/03/30 01:10:00;;;;;;;68.00;11.13;;;;;;;12.30;100.00;94295.84;1031089;28;20110;-70
2024/03/30 01:10:30;;;;;;;62.13;10.40;;;;;;;12.23;100.00;94301.56;1030492;28;20024;-68
2024/03/30 01:11:01;;;;;;;82.80;12.82;;;;;;;12.26;100.00;94300.19;1030759;28;20027;-68
2024/03/30 01:11:31;;;;;;;72.82;10.80;;;;;;;12.20;100.00;94307.44;1026640;28;20149;-69
2024/03/30 01:12:02;;;;;;;78.15;11.32;;;;;;;12.10;100.00;94296.47;1023169;28;20473;-70
2024/03/30 01:12:33;;;;;;;72.55;11.55;;;;;;;12.11;100.00;94308.53;1024313;28;20027;-69
2024/03/30 01:13:04;;;;;;;66.72;10.85;;;;;;;12.07;100.00;94302.31;1027063;28;20027;-70
2024/03/30 01:13:34;;;;;;;65.25;9.75;;;;;;;12.03;100.00;94308.19;1027075;28;20058;-70
2024/03/30 01:14:05;;;;;;;71.82;9.27;;;;;;;11.96;100.00;94307.88;1028530;28;20082;-70
2024/03/30 01:14:39;;;;;;;65.93;10.75;;;;;;;11.96;100.00;94307.88;1026750;28;20084;-69
2024/03/30 01:15:10;;;;;;;74.75;11.48;;;;;;;11.89;100.00;94302.28;1022950;29;20392;-70
2024/03/30 01:15:40;;;;;;;57.95;9.55;;;;;;;11.90;100.00;94310.94;1030746;28;20598;-70
2024/03/30 01:16:11;;;;;;;82.68;10.52;;;;;;;11.86;100.00;94310.78;1026789;28;20033;-69
2024/03/30 01:16:42;;;;;;;84.00;11.93;;;;;;;11.82;100.00;94312.44;1027142;28;20034;-70
2024/03/30 01:17:13;;;;;;;54.08;10.73;;;;;;;11.76;100.00;94308.41;1030944;28;20018;-71
2024/03/30 01:17:44;;;;;;;74.80;10.35;;;;;;;11.74;100.00;94315.84;1031216;28;20113;-71
2024/03/30 01:18:15;;;;;;;64.22;10.50;;;;;;;11.72;100.00;94320.63;1035159;28;20505;-70
2024/03/30 01:18:45;;;;;;;63.92;10.52;;;;;;;11.64;100.00;94316.13;1034221;28;20026;-69
2024/03/30 01:19:16;;;;;;;69.03;11.95;;;;;;;11.59;100.00;94314.38;1022965;29;20024;-70
2024/03/30 01:19:47;;;;;;;71.57;9.98;;;;;;;11.54;100.00;94325.81;1026990;28;20492;-70
2024/03/30 01:20:20;;;;;;;61.08;10.88;;;;;;;11.50;100.00;94321.44;1031021;28;20062;-69
2024/03/30 01:20:51;;;;;;;67.88;10.38;;;;;;;11.47;100.00;94322.06;1036289;28;20141;-69
2024/03/30 01:21:21;;;;;;;69.90;11.05;;;;;;;11.39;100.00;94314.91;1046819;28;20020;-70
2024/03/30 01:21:52;;;;;;;81.50;10.85;;;;;;;11.43;100.00;94319.25;1034795;28;20442;-69
2024/03/30 01:22:23;;;;;;;68.75;10.85;;;;;;;11.32;100.00;94310.88;1030970;28;20030;-69
2024/03/30 01:22:54;;;;;;;64.90;10.30;;;;;;;11.34;100.00;94318.47;1022749;28;20548;-68
2024/03/30 01:23:24;;;;;;;72.82;10.73;;;;;;;11.32;100.00;94326.63;1019427;28;20016;-70
2024/03/30 01:23:56;;;;;;;62.53;10.48;;;;;;;11.28;100.00;94328.31;1023069;28;20023;-69
2024/03/30 01:24:26;;;;;;;81.38;11.57;;;;;;;11.23;100.00;94325.03;1018209;29;20031;-70
2024/03/30 01:24:57;;;;;;;76.78;12.30;;;;;;;11.22;100.00;94331.38;1022750;28;20552;-69
2024/03/30 01:25:28;;;;;;;80.40;9.88;;;;;;;11.24;100.00;94323.97;1026521;28;20492;-70
2024/03/30 01:25:58;;;;;;;76.13;11.40;;;;;;;11.23;100.00;94322.41;1033299;28;20507;-70
2024/03/30 01:26:29;;;;;;;79.07;11.35;;;;;;;11.22;100.00;94321.63;1030826;28;20825;-69
2024/03/30 01:26:59;;;;;;;69.75;10.70;;;;;;;11.22;100.00;94320.84;1022771;29;20386;-71
2024/03/30 01:27:30;;;;;;;69.32;10.63;;;;;;;11.25;100.00;94317.63;1018780;29;20055;-70
2024/03/30 01:28:01;;;;;;;76.88;11.75;;;;;;;11.26;100.00;94312.06;1022777;29;20094;-67
2024/03/30 01:28:31;;;;;;;73.57;10.93;;;;;;;11.28;100.00;94317.03;1022166;29;20560;-67
2024/03/30 01:29:02;;;;;;;72.72;11.15;;;;;;;11.21;100.00;94299.09;1024145;28;20022;-70
2024/03/30 01:29:33;;;;;;;69.78;10.93;;;;;;;11.37;100.00;94302.09;1019765;29;20024;-69
2024/03/30 01:30:05;;;;;;;74.35;11.10;;;;;;;11.34;100.00;94310.59;1034853;28;20041;-69
2024/03/30 01:30:35;;;;;;;71.30;10.77;;;;;;;11.38;100.00;94314.16;1030652;28;20420;-69
2024/03/30 01:31:06;;;;;;;75.72;9.73;;;;;;;11.39;100.00;94312.28;1030617;28;20126;-70
2024/03/30 01:31:37;;;;;;;74.15;9.63;;;;;;;11.43;100.00;94316.63;1026982;28;20078;-68
2024/03/30 01:32:08;;;;;;;63.28;11.25;;;;;;;11.42;100.00;94304.59;1026924;28;20014;-69
2024/03/30 01:32:38;;;;;;;62.47;10.00;;;;;;;11.42;100.00;94307.22;1026589;28;20125;-70
2024/03/30 01:33:09;;;;;;;53.50;8.80;;;;;;;11.46;100.00;94308.16;1022882;29;20031;-68
2024/03/30 01:33:40;;;;;;;73.53;10.35;;;;;;;11.49;100.00;94304.16;1023051;28;20429;-70
2024/03/30 01:34:10;;;;;;;64.15;10.20;;;;;;;11.52;100.00;94304.31;1026250;28;20026;-69
2024/03/30 01:34:41;;;;;;;71.22;9.52;;;;;;;11.62;100.00;94307.75;1030795;28;20530;-70
2024/03/30 01:35:12;;;;;;;66.10;10.00;;;;;;;11.61;100.00;94298.34;1030900;28;20109;-69
2024/03/30 01:35:42;;;;;;;77.45;10.70;;;;;;;11.69;100.00;94303.59;1026763;28;20019;-69
2024/03/30 01:36:12;;;;;;;59.35;8.60;;;;;;;11.64;100.00;94290.63;1022786;29;20019;-70
2024/03/30 01:36:43;;;;;;;58.80;8.35;;;;;;;11.72;100.00;94292.47;1022732;29;20027;-66
2024/03/30 01:37:13;;;;;;;60.17;9.73;;;;;;;11.70;100.00;94293.84;1030738;28;20030;-69
2024/03/30 01:37:44;;;;;;;60.85;8.73;;;;;;;11.75;100.00;94302.38;1026657;28;20023;-70
2024/03/30 01:38:14;;;;;;;56.25;8.15;;;;;;;11.73;100.00;94303.75;1026778;28;20138;-70
2024/03/30 01:38:45;;;;;;;62.92;9.73;;;;;;;11.73;100.00;94301.13;1030158;28;20026;-70
2024/03/30 01:39:15;;;;;;;69.63;9.57;;;;;;;11.76;100.00;94303.16;1026679;28;20059;-68
2024/03/30 01:39:46;;;;;;;64.00;9.70;;;;;;;11.78;100.00;94301.78;1026938;28;20026;-68
2024/03/30 01:40:16;;;;;;;64.15;8.93;;;;;;;11.83;100.00;94298.22;1034969;28;20044;-69
2024/03/30 01:40:47;;;;;;;56.83;9.38;;;;;;;11.91;100.00;94305.41;1038748;28;20490;-69
2024/03/30 01:41:17;;;;;;;66.45;8.35;;;;;;;11.94;100.00;94294.28;1034716;28;20033;-70
2024/03/30 01:41:48;;;;;;;69.18;9.30;;;;;;;11.98;100.00;94299.69;1034773;28;20030;-68
2024/03/30 01:42:26;;;;;;;60.42;10.02;;;;;;;11.95;100.00;94290.56;1034804;28;20032;-70
2024/03/30 01:42:56;;;;;;;53.40;9.25;;;;;;;12.04;100.00;94301.09;1031748;28;20038;-70
2024/03/30 01:43:27;;;;;;;64.65;9.50;;;;;;;12.06;100.00;94306.81;1030636;28;20034;-70
2024/03/30 01:43:57;;;;;;;68.50;10.35;;;;;;;12.09;100.00;94300.94;1026669;28;20031;-69
2024/03/30 01:44:27;;;;;;;59.05;10.82;;;;;;;12.08;100.00;94298.63;1026906;28;20027;-69
2024/03/30 01:44:58;;;;;;;71.80;10.40;;;;;;;12.06;100.00;94287.63;1030763;28;20026;-70
2024/03/30 01:45:34;;;;;;;65.65;10.25;;;;;;;12.09;100.00;94294.91;1030936;28;20069;-68
2024/03/30 01:46:04;;;;;;;71.80;10.05;;;;;;;12.16;100.00;94295.22;1026566;28;20126;-70
2024/03/30 01:46:35;;;;;;;55.55;9.35;;;;;;;12.16;100.00;94295.22;1027728;28;20033;-70
2024/03/30 01:47:06;;;;;;;75.00;10.88;;;;;;;12.12;100.00;94294.31;1023701;28;20031;-70
2024/03/30 01:47:36;;;;;;;73.97;10.88;;;;;;;12.09;100.00;94287.81;1026765;28;20043;-70
2024/03/30 01:48:10;;;;;;;54.83;9.10;;;;;;;12.19;100.00;94305.13;1024347;28;20031;-70
2024/03/30 01:48:40;;;;;;;72.78;10.23;;;;;;;12.14;100.00;94294.75;1026723;28;20496;-66
2024/03/30 01:49:11;;;;;;;57.00;8.57;;;;;;;12.14;100.00;94305.28;1019269;29;20027;-69
2024/03/30 01:49:41;;;;;;;65.90;9.48;;;;;;;12.10;100.00;94299.09;1027532;28;20031;-70
2024/03/30 01:50:11;;;;;;;62.40;9.93;;;;;;;12.07;100.00;94297.84;1034742;28;20037;-69
2024/03/30 01:50:42;;;;;;;58.47;9.18;;;;;;;11.96;100.00;94284.22;1026904;28;20031;-70
2024/03/30 01:51:13;;;;;;;72.70;9.13;;;;;;;12.08;100.00;94304.66;1026675;28;20042;-70
2024/03/30 01:51:44;;;;;;;58.35;9.05;;;;;;;11.98;100.00;94297.84;1022693;29;20056;-69
2024/03/30 01:52:15;;;;;;;55.88;9.73;;;;;;;12.02;100.00;94298.00;1019426;28;20781;-70
2024/03/30 01:52:46;;;;;;;50.40;8.85;;;;;;;11.94;100.00;94294.28;1026754;28;20042;-69
2024/03/30 01:53:19;;;;;;;65.65;9.52;;;;;;;11.89;100.00;94294.41;1022799;28;20038;-69
2024/03/30 01:53:49;;;;;;;67.20;9.23;;;;;;;11.87;100.00;94296.59;1018830;29;20478;-70
2024/03/30 01:54:19;;;;;;;58.05;8.57;;;;;;;11.88;100.00;94308.63;1018645;29;20028;-69
2024/03/30 01:54:50;;;;;;;54.10;9.02;;;;;;;11.86;100.00;94305.53;1022951;29;20075;-70
2024/03/30 01:55:20;;;;;;;54.85;8.57;;;;;;;11.92;100.00;94296.44;1022870;28;20035;-70
2024/03/30 01:55:51;;;;;;;61.38;8.63;;;;;;;11.93;100.00;94297.97;1018607;29;20031;-69
2024/03/30 01:56:22;;;;;;;54.88;9.30;;;;;;;11.99;100.00;94296.75;1019004;29;20023;-68
2024/03/30 01:56:52;;;;;;;48.47;7.75;;;;;;;12.10;100.00;94299.09;1022483;28;20082;-69
2024/03/30 01:57:23;;;;;;;60.83;9.80;;;;;;;12.12;100.00;94294.31;1030747;28;20018;-70
2024/03/30 01:57:53;;;;;;;66.38;8.48;;;;;;;12.16;100.00;94290.75;1034716;28;20033;-69
2024/03/30 01:58:24;;;;;;;55.75;9.60;;;;;;;12.16;100.00;94292.59;1026643;28;20030;-70
2024/03/30 01:58:55;;;;;;;58.50;6.97;;;;;;;12.16;100.00;94290.75;1021024;28;20032;-70
2024/03/30 01:59:25;;;;;;;50.75;8.60;;;;;;;12.17;100.00;94304.66;1026684;28;20029;-69
2024/03/30 01:59:56;;;;;;;58.50;9.13;;;;;;;12.17;100.00;94297.56;1026991;28;20101;-69
2024/03/30 02:00:26;;;;;;;55.65;7.32;;;;;;;12.14;100.00;94307.91;1022755;29;20034;-69
2024/03/30 02:00:57;;;;;;;57.10;9.43;;;;;;;12.07;100.00;94292.56;1022744;28;20023;-69
2024/03/30 02:01:27;;;;;;;47.33;8.68;;;;;;;12.21;100.00;94297.72;1022808;29;20043;-69
2024/03/30 02:01:58;;;;;;;69.63;10.20;;;;;;;12.20;100.00;94290.91;1022832;29;20031;-68
2024/03/30 02:02:28;;;;;;;65.75;10.48;;;;;;;12.25;100.00;94288.91;1018681;29;20019;-69
2024/03/30 02:02:59;;;;;;;90.95;10.50;;;;;;;12.26;100.00;94279.16;1027005;28;20030;-69
2024/03/30 02:03:30;;;;;;;69.60;9.63;;;;;;;12.28;100.00;94287.53;1030818;28;20462;-69
2024/03/30 02:04:00;;;;;;;65.03;9.50;;;;;;;12.25;100.00;94277.63;1026708;28;20042;-69
2024/03/30 02:04:31;;;;;;;48.78;9.05;;;;;;;12.24;100.00;94283.97;1022731;29;20027;-69
2024/03/30 02:05:02;;;;;;;73.43;10.30;;;;;;;12.20;100.00;94285.63;1018888;29;20074;-69
2024/03/30 02:05:33;;;;;;;68.40;10.75;;;;;;;12.18;100.00;94283.34;1028017;28;20057;-69
2024/03/30 02:06:04;;;;;;;57.38;8.73;;;;;;;12.10;100.00;94276.19;1030802;28;20022;-69
2024/03/30 02:06:34;;;;;;;63.95;9.18;;;;;;;12.10;100.00;94285.94;1030801;28;20034;-68
2024/03/30 02:07:05;;;;;;;52.03;9.70;;;;;;;12.06;100.00;94279.75;1023061;28;20019;-69
2024/03/30 02:07:35;;;;;;;60.75;9.80;;;;;;;11.96;100.00;94281.59;1031180;28;20136;-69
2024/03/30 02:08:06;;;;;;;66.03;9.15;;;;;;;11.98;100.00;94279.44;1019635;29;20411;-68
2024/03/30 02:08:37;;;;;;;66.47;8.95;;;;;;;12.00;100.00;94285.19;1027641;28;20034;-69
2024/03/30 02:09:07;;;;;;;53.97;10.00;;;;;;;11.96;100.00;94286.84;1026925;28;20019;-69
2024/03/30 02:09:38;;;;;;;54.35;8.80;;;;;;;11.99;100.00;94280.22;1023907;28;20170;-69
2024/03/30 02:10:09;;;;;;;66.35;8.57;;;;;;;11.99;100.00;94280.22;1031736;28;20042;-69
2024/03/30 02:10:40;;;;;;;58.72;9.82;;;;;;;11.95;100.00;94285.31;1030110;28;20445;-69
2024/03/30 02:11:13;;;;;;;59.80;9.75;;;;;;;11.91;100.00;94281.75;1031637;28;20026;-69
2024/03/30 02:11:43;;;;;;;55.45;9.35;;;;;;;11.88;100.00;94286.84;1027554;28;20019;-69
2024/03/30 02:12:14;;;;;;;50.20;9.43;;;;;;;11.82;100.00;94280.16;1028413;28;20493;-69
2024/03/30 02:12:44;;;;;;;50.92;7.88;;;;;;;11.77;100.00;94278.44;1035766;28;20697;-69
2024/03/30 02:13:14;;;;;;;64.45;9.57;;;;;;;11.78;100.00;94286.00;1027913;28;20034;-69
2024/03/30 02:13:46;;;;;;;63.55;10.95;;;;;;;11.81;100.00;94276.75;1031720;28;20026;-70
2024/03/30 02:14:16;;;;;;;56.10;8.10;;;;;;;11.77;100.00;94278.44;1023472;29;20035;-69
2024/03/30 02:14:48;;;;;;;65.82;9.50;;;;;;;11.66;100.00;94271.91;1027476;28;20038;-69
2024/03/30 02:15:18;;;;;;;49.70;7.07;;;;;;;11.67;100.00;94274.25;1027781;28;20045;-68
2024/03/30 02:15:49;;;;;;;53.38;7.80;;;;;;;11.66;100.00;94277.16;1027075;28;20095;-69
2024/03/30 02:16:23;;;;;;;55.80;9.07;;;;;;;11.64;100.00;94284.59;1027756;28;20023;-69
2024/03/30 02:16:54;;;;;;;61.63;10.43;;;;;;;11.59;100.00;94282.09;1035560;28;20022;-68
2024/03/30 02:17:24;;;;;;;53.33;8.15;;;;;;;11.55;100.00;94287.94;1039921;28;20033;-69
2024/03/30 02:17:55;;;;;;;65.88;10.65;;;;;;;11.45;100.00;94275.09;1031802;28;20086;-69
2024/03/30 02:18:25;;;;;;;61.10;9.13;;;;;;;11.50;100.00;94282.84;1031412;28;20107;-69
2024/03/30 02:18:56;;;;;;;61.47;8.52;;;;;;;11.44;100.00;94286.69;1030690;28;20029;-69
2024/03/30 02:19:26;;;;;;;42.97;7.45;;;;;;;11.43;100.00;94285.09;1023644;28;20467;-68
2024/03/30 02:19:57;;;;;;;47.05;9.20;;;;;;;11.37;100.00;94281.09;1023553;29;20031;-69
2024/03/30 02:20:28;;;;;;;55.15;9.13;;;;;;;11.33;100.00;94274.88;1027580;28;20039;-69
2024/03/30 02:20:58;;;;;;;47.28;8.07;;;;;;;11.32;100.00;94278.59;1027429;28;20089;-66